Limestone, PA (16234)

4:18 AM EST on November 26, 2014 (GMT -0500)
Clarion Oaks Golf Course | Change Station
CLOSE
Current Station
Personal Weather Station
Location: Clarion, PA
Elevation: 1503 ft
Nearby Weather Stations

Elev 1503 ft 41.19 °N, 79.38 °W | Updated 3 minutes ago

Mostly Cloudy
Mostly Cloudy
29.2 °F
Feels Like 29 °F
N
1.0
Wind Variable Wind from NE
Gusts 4.0 mph

Today
High -- | Low -- °F
--% Chance of Precip.
Yesterday
High -- | Low -- °F
Precip. -- in
7:17 AM 4:51 PM
Waxing Crescent, 18% visible
Pressure 30.15 in
Visibility 10.0 miles
Clouds Clear
Windchill 29 °F
Dew Point 25 °F
Humidity 84%
Rainfall 0.00 in
Snow Depth Not available.
UV 0 out of 12
Pollen .10 out of 12
Air Quality Not available.
Flu Activity Not available.
METAR KDUJ 260853Z AUTO 05004KT 10SM CLR M02/M04 A3011 RMK AO2 PRESFR SLP210 T10221044 58006

More Conditions Fewer Conditions

Pressure 30.15 in
Visibility 10.0 miles
Clouds Clear
Windchill 29 °F
Dew Point 25 °F
Humidity 84%
Rainfall 0.00 in
Snow Depth Not available.
UV 0 out of 12
Pollen .10 out of 12
Air Quality Not available.
Flu Activity Not available.
METAR KDUJ 260853Z AUTO 05004KT 10SM CLR M02/M04 A3011 RMK AO2 PRESFR SLP210 T10221044 58006

More Conditions Fewer Conditions

10-Day Weather Forecast

Almanac

Astronomy

Nov. 26, 2014 Rise Set
Actual Time
Civil Twilight
Nautical Twilight
Astronomical Twilight
Moon
Length of Visible Light
Length of Day
Tomorrow will be .
, % of the Moon is Illuminated

Today's Extremes

State Highs State Lows

Community

WunderPhotos

Upload Photos

1,773,701 photos uploaded!

WunderBlogs® & News

Nearby

Air Quality

  Air Quality AQ Index Pollutant
Not available.

Snow Depth

Station Depth Elevation

Earthquake Activity

City Distance Mag. Time & Date
Minimum magnitude displayed is 2.5.

Coastal Water Temperatures

Place Temperature

Nearby Weather Stations